createdAt,value
2018-09-06T00:01:33.739Z,9.33
2018-09-06T00:04:03.698Z,11.63
2018-09-06T00:06:33.463Z,7.80
2018-09-06T00:09:04.179Z,7.05
2018-09-06T00:11:34.112Z,6.70
2018-09-06T00:14:04.299Z,7.60
2018-09-06T00:16:34.214Z,7.30
2018-09-06T00:19:04.108Z,7.63
2018-09-06T00:21:33.976Z,7.67
2018-09-06T00:24:04.047Z,7.07
2018-09-06T00:26:33.893Z,7.47
2018-09-06T00:29:03.615Z,7.47
2018-09-06T00:31:34.133Z,7.85
2018-09-06T00:34:04.864Z,7.65
2018-09-06T00:36:34.773Z,7.80
2018-09-06T00:39:05.546Z,7.57
2018-09-06T00:41:35.508Z,7.63
2018-09-06T00:44:05.562Z,7.00
2018-09-06T00:46:35.664Z,7.47
2018-09-06T00:49:05.599Z,7.67
2018-09-06T00:51:35.581Z,6.87
2018-09-06T00:54:05.444Z,7.80
2018-09-06T00:56:35.457Z,7.30
2018-09-06T00:59:05.343Z,7.90
2018-09-06T01:01:35.273Z,7.17
2018-09-06T01:04:05.192Z,7.17
2018-09-06T01:06:35.020Z,6.80
2018-09-06T01:09:06.262Z,7.30
2018-09-06T01:11:36.238Z,7.40
2018-09-06T01:14:06.201Z,6.40
2018-09-06T01:16:36.295Z,7.20
2018-09-06T01:19:06.253Z,7.37
2018-09-06T01:21:36.163Z,7.43
2018-09-06T01:24:06.403Z,6.72
2018-09-06T01:26:36.413Z,7.17
2018-09-06T01:29:06.157Z,6.45
2018-09-06T01:31:36.124Z,7.13
2018-09-06T01:34:06.325Z,7.37
2018-09-06T01:36:41.313Z,6.80
2018-09-06T01:39:11.924Z,7.20
2018-09-06T01:41:41.928Z,6.62
2018-09-06T01:44:11.903Z,7.47
2018-09-06T01:46:41.591Z,7.37
2018-09-06T01:49:11.487Z,6.77
2018-09-06T01:51:42.342Z,7.50
2018-09-06T01:54:12.255Z,7.57
2018-09-06T01:56:42.157Z,7.60
2018-09-06T01:59:14.174Z,7.33
2018-09-06T02:01:44.267Z,6.63
2018-09-06T02:04:14.211Z,7.27
2018-09-06T02:06:44.341Z,7.47
2018-09-06T02:09:14.321Z,6.77
2018-09-06T02:11:44.275Z,7.47
2018-09-06T02:14:14.119Z,7.27
2018-09-06T02:16:43.993Z,6.97
2018-09-06T02:19:13.854Z,7.22
2018-09-06T02:21:45.724Z,18.20
2018-09-06T02:24:15.576Z,26.55
2018-09-06T02:26:45.308Z,13.65
2018-09-06T02:29:15.080Z,8.77
2018-09-06T02:31:45.050Z,7.47
2018-09-06T02:34:14.853Z,7.50
2018-09-06T02:36:44.999Z,8.10
2018-09-06T02:39:14.923Z,7.40
2018-09-06T02:41:51.249Z,7.47
2018-09-06T02:44:21.103Z,7.30
2018-09-06T02:46:51.209Z,7.57
2018-09-06T02:49:24.938Z,7.47
2018-09-06T02:51:54.828Z,8.40
2018-09-06T02:54:31.392Z,7.67
2018-09-06T02:57:01.434Z,7.57
2018-09-06T02:59:31.180Z,7.27
2018-09-06T03:02:01.653Z,12.68
2018-09-06T03:04:31.655Z,25.50
2018-09-06T03:07:01.715Z,27.80
2018-09-06T03:09:31.739Z,9.17
2018-09-06T03:12:03.708Z,7.70
2018-09-06T03:14:36.353Z,7.77
2018-09-06T03:17:06.455Z,9.63
2018-09-06T03:19:36.444Z,8.63
2018-09-06T03:22:06.285Z,8.17
2018-09-06T03:24:36.289Z,9.30
2018-09-06T03:27:06.325Z,9.45
2018-09-06T03:29:36.188Z,9.80
2018-09-06T03:32:06.135Z,9.57
2018-09-06T03:34:36.254Z,9.40
2018-09-06T03:37:06.016Z,10.63
2018-09-06T03:39:35.893Z,10.30
2018-09-06T03:42:07.021Z,9.07
2018-09-06T03:44:37.710Z,10.18
2018-09-06T03:47:07.678Z,8.80
2018-09-06T03:49:37.588Z,9.53
2018-09-06T03:52:07.689Z,10.57
2018-09-06T03:54:37.664Z,11.17
2018-09-06T03:57:08.141Z,10.10
2018-09-06T03:59:38.005Z,9.97
2018-09-06T04:02:08.033Z,9.27
2018-09-06T04:04:37.979Z,10.23
2018-09-06T04:07:08.486Z,9.43
2018-09-06T04:09:38.788Z,9.43
2018-09-06T04:12:08.885Z,10.37
2018-09-06T04:14:38.813Z,9.73
2018-09-06T04:17:08.706Z,8.90
2018-09-06T04:19:38.755Z,8.97
2018-09-06T04:22:08.689Z,8.50
2018-09-06T04:24:38.658Z,10.00
2018-09-06T04:27:08.511Z,10.15
2018-09-06T04:29:38.458Z,9.37
2018-09-06T04:32:08.320Z,9.93
2018-09-06T04:34:38.080Z,9.58
2018-09-06T04:37:08.211Z,9.88
2018-09-06T04:39:38.225Z,10.03
2018-09-06T04:42:08.005Z,9.60
2018-09-06T04:44:37.970Z,9.23
2018-09-06T04:47:07.849Z,9.07
2018-09-06T04:49:38.795Z,9.10
2018-09-06T04:52:09.839Z,9.53
2018-09-06T04:54:40.925Z,9.37
2018-09-06T04:57:38.564Z,10.10
2018-09-06T05:00:08.554Z,11.37
2018-09-06T05:02:38.526Z,11.47
2018-09-06T05:05:08.344Z,12.37
2018-09-06T05:07:38.349Z,11.63
2018-09-06T05:10:08.739Z,12.90
2018-09-06T05:12:38.635Z,11.83
2018-09-06T05:15:08.705Z,11.73
2018-09-06T05:17:38.769Z,10.70
2018-09-06T05:20:08.724Z,12.28
2018-09-06T05:22:39.039Z,12.77
2018-09-06T05:25:08.985Z,12.73
2018-09-06T05:27:39.013Z,12.93
2018-09-06T05:30:09.024Z,13.30
2018-09-06T05:32:38.732Z,14.63
2018-09-06T05:35:08.774Z,15.67
2018-09-06T05:37:38.554Z,14.80
2018-09-06T05:40:08.456Z,15.73
2018-09-06T05:42:38.289Z,16.10
2018-09-06T05:45:08.259Z,17.37
2018-09-06T05:47:38.709Z,19.20
2018-09-06T05:50:09.734Z,17.97
2018-09-06T05:52:40.626Z,18.93
2018-09-06T05:55:10.378Z,18.93
2018-09-06T05:57:40.479Z,17.67
2018-09-06T06:00:15.632Z,21.37
2018-09-06T06:02:46.221Z,19.10
2018-09-06T06:05:17.158Z,19.60
2018-09-06T06:08:04.350Z,22.93
2018-09-06T06:10:34.155Z,21.02
2018-09-06T06:13:04.199Z,21.67
2018-09-06T06:15:34.035Z,20.33
2018-09-06T06:18:03.789Z,21.27
2018-09-06T06:20:33.710Z,20.97
2018-09-06T06:23:03.565Z,21.68
2018-09-06T06:25:33.284Z,22.97
2018-09-06T06:28:02.999Z,20.95
2018-09-06T06:30:32.704Z,22.87
2018-09-06T06:33:02.460Z,22.13
2018-09-06T06:35:32.387Z,23.38
2018-09-06T06:38:02.744Z,22.40
2018-09-06T06:40:32.657Z,20.60
2018-09-06T06:43:02.814Z,27.80
2018-09-06T06:45:32.726Z,23.67
2018-09-06T06:48:02.611Z,23.50
2018-09-06T06:50:32.552Z,22.42
2018-09-06T06:53:02.367Z,22.57
2018-09-06T06:55:32.265Z,21.70
2018-09-06T06:58:02.399Z,23.50
2018-09-06T07:00:36.379Z,25.20
2018-09-06T07:03:06.433Z,24.77
2018-09-06T07:05:36.119Z,23.70
2018-09-06T07:08:06.814Z,22.83
2018-09-06T07:10:37.007Z,21.60
2018-09-06T07:13:07.241Z,23.70
2018-09-06T07:15:37.063Z,22.43
2018-09-06T07:18:07.092Z,22.93
2018-09-06T07:20:37.052Z,23.70
2018-09-06T07:23:06.994Z,24.00
2018-09-06T07:25:36.783Z,23.57
2018-09-06T07:28:06.560Z,21.37
2018-09-06T07:30:36.338Z,22.13
2018-09-06T07:33:06.187Z,23.55
2018-09-06T07:35:36.260Z,23.75
2018-09-06T07:38:06.184Z,23.63
2018-09-06T07:40:36.075Z,23.93
2018-09-06T07:43:05.986Z,22.87
2018-09-06T07:45:36.270Z,23.27
2018-09-06T07:48:06.191Z,23.47
2018-09-06T07:50:36.157Z,22.73
2018-09-06T07:53:06.141Z,24.40
2018-09-06T07:55:36.147Z,23.27
2018-09-06T07:58:06.172Z,23.33
2018-09-06T08:00:39.541Z,26.40
2018-09-06T08:03:09.825Z,24.00
2018-09-06T08:05:40.177Z,26.10
2018-09-06T08:08:09.994Z,22.83
2018-09-06T08:10:39.887Z,23.23
2018-09-06T08:13:09.932Z,23.13
2018-09-06T08:15:39.788Z,25.13
2018-09-06T08:18:10.069Z,22.70
2018-09-06T08:20:40.006Z,24.03
2018-09-06T08:23:10.167Z,23.27
2018-09-06T08:25:40.279Z,20.70
2018-09-06T08:28:10.372Z,21.37
2018-09-06T08:30:40.343Z,21.03
2018-09-06T08:33:10.334Z,21.27
2018-09-06T08:35:40.376Z,21.07
2018-09-06T08:38:10.284Z,22.47
2018-09-06T08:40:40.185Z,22.57
2018-09-06T08:43:09.855Z,23.52
2018-09-06T08:45:39.856Z,23.38
2018-09-06T08:48:09.960Z,21.90
2018-09-06T08:50:39.871Z,24.17
2018-09-06T08:53:09.706Z,24.47
2018-09-06T08:55:40.159Z,21.97
2018-09-06T08:58:10.967Z,21.82
2018-09-06T09:00:41.776Z,22.63
2018-09-06T09:03:11.857Z,23.53
2018-09-06T09:05:41.989Z,21.30
2018-09-06T09:08:11.927Z,21.93
2018-09-06T09:10:41.886Z,22.40
2018-09-06T09:13:11.720Z,23.80
2018-09-06T09:15:41.869Z,22.77
2018-09-06T09:18:11.750Z,23.55
2018-09-06T09:20:41.779Z,22.80
2018-09-06T09:23:11.751Z,25.20
2018-09-06T09:25:41.842Z,23.03
2018-09-06T09:28:11.836Z,22.40
2018-09-06T09:30:41.898Z,22.27
2018-09-06T09:33:11.686Z,21.80
2018-09-06T09:35:41.677Z,21.93
2018-09-06T09:38:11.778Z,23.90
2018-09-06T09:40:41.611Z,22.83
2018-09-06T09:43:11.709Z,25.20
2018-09-06T09:45:41.626Z,24.97
2018-09-06T09:48:11.557Z,22.60
2018-09-06T09:53:11.093Z,23.00
2018-09-06T09:55:41.126Z,24.17
2018-09-06T09:58:12.272Z,22.50
2018-09-06T10:00:43.612Z,24.12
2018-09-06T10:03:19.842Z,22.20
2018-09-06T10:06:53.669Z,21.00
2018-09-06T10:09:25.306Z,21.30
2018-09-06T10:11:55.245Z,20.55
2018-09-06T10:14:25.133Z,21.03
2018-09-06T10:16:55.157Z,20.70
2018-09-06T10:19:25.052Z,20.70
2018-09-06T10:21:55.181Z,21.40
2018-09-06T10:24:25.195Z,21.77
2018-09-06T10:29:56.792Z,20.23
2018-09-06T10:32:27.171Z,18.97
2018-09-06T10:34:57.389Z,18.33
2018-09-06T10:37:27.303Z,17.53
2018-09-06T10:39:57.364Z,18.20
2018-09-06T10:42:33.652Z,19.20
2018-09-06T10:45:04.017Z,17.60
2018-09-06T10:47:33.862Z,19.73
2018-09-06T10:50:04.097Z,17.27
2018-09-06T10:52:34.258Z,18.20
2018-09-06T10:55:04.246Z,17.37
2018-09-06T10:57:34.218Z,18.23
2018-09-06T11:00:04.401Z,17.48
2018-09-06T11:02:34.432Z,16.33
2018-09-06T11:05:04.826Z,17.97
2018-09-06T11:07:34.977Z,18.57
2018-09-06T11:10:04.997Z,18.77
2018-09-06T11:12:34.989Z,18.20
2018-09-06T11:15:05.020Z,18.57
2018-09-06T11:17:34.866Z,17.27
2018-09-06T11:20:04.967Z,15.60
2018-09-06T11:22:35.068Z,17.47
2018-09-06T11:25:04.827Z,16.10
2018-09-06T11:27:34.980Z,16.43
2018-09-06T11:30:04.960Z,15.47
2018-09-06T11:32:34.920Z,15.23
2018-09-06T11:35:04.911Z,15.00
2018-09-06T11:37:35.131Z,15.30
2018-09-06T11:40:05.061Z,15.53
2018-09-06T11:42:34.884Z,14.90
2018-09-06T11:45:06.146Z,14.83
2018-09-06T11:47:36.830Z,14.38
2018-09-06T11:50:07.274Z,14.33
2018-09-06T11:52:37.286Z,14.60
2018-09-06T11:55:07.558Z,14.23
2018-09-06T11:57:37.572Z,14.17
2018-09-06T12:00:07.967Z,13.33
2018-09-06T12:02:38.056Z,13.37
2018-09-06T12:05:08.206Z,13.97
2018-09-06T12:07:38.553Z,15.60
2018-09-06T12:10:08.568Z,28.07
2018-09-06T12:12:38.607Z,20.77
2018-09-06T12:15:08.502Z,15.03
2018-09-06T12:17:39.653Z,13.60
2018-09-06T12:20:09.918Z,14.10
2018-09-06T12:22:39.867Z,13.47
2018-09-06T12:25:10.035Z,13.18
2018-09-06T12:27:40.330Z,13.33
2018-09-06T12:30:10.502Z,15.90
2018-09-06T12:32:40.564Z,16.55
2018-09-06T12:35:10.708Z,14.53
2018-09-06T12:37:40.582Z,14.20
2018-09-06T12:40:10.487Z,14.93
2018-09-06T12:42:40.622Z,16.07
2018-09-06T12:45:10.540Z,14.95
2018-09-06T12:47:41.048Z,16.60
2018-09-06T12:50:11.094Z,15.95
2018-09-06T12:52:41.076Z,17.60
2018-09-06T12:55:11.226Z,18.30
2018-09-06T12:57:41.084Z,17.23
2018-09-06T13:00:11.721Z,18.87
2018-09-06T13:02:41.627Z,20.77
2018-09-06T13:05:11.852Z,19.53
2018-09-06T13:07:41.932Z,18.90
2018-09-06T13:10:11.895Z,17.63
2018-09-06T13:12:42.141Z,20.50
2018-09-06T13:15:12.516Z,20.50
2018-09-06T13:17:42.656Z,20.67
2018-09-06T13:20:13.706Z,19.63
2018-09-06T13:22:43.748Z,17.57
2018-09-06T13:25:14.447Z,18.80
2018-09-06T13:27:44.683Z,19.17
2018-09-06T13:30:15.001Z,18.87
2018-09-06T13:32:45.415Z,19.23
2018-09-06T13:35:15.630Z,18.97
2018-09-06T13:37:45.780Z,19.13
2018-09-06T13:40:15.855Z,19.93
2018-09-06T13:42:46.106Z,17.93
2018-09-06T13:45:16.517Z,19.70
2018-09-06T13:47:46.340Z,16.80
2018-09-06T13:50:16.351Z,16.57
2018-09-06T13:52:46.308Z,15.43
2018-09-06T13:55:16.401Z,17.35
2018-09-06T13:57:46.644Z,17.17
2018-09-06T14:00:16.723Z,17.02
2018-09-06T14:02:46.908Z,17.12
2018-09-06T14:05:16.783Z,16.70
2018-09-06T14:07:46.789Z,16.93
2018-09-06T14:10:16.706Z,17.73
2018-09-06T14:12:46.730Z,18.77
2018-09-06T14:15:16.736Z,18.30
2018-09-06T14:17:46.791Z,18.47
2018-09-06T14:20:17.816Z,18.20
2018-09-06T14:22:47.841Z,19.70
2018-09-06T14:25:18.015Z,19.92
2018-09-06T14:27:47.950Z,18.83
2018-09-06T14:30:18.056Z,19.73
2018-09-06T14:32:48.052Z,15.20
2018-09-06T14:35:18.205Z,19.23
2018-09-06T14:37:48.101Z,16.23
2018-09-06T14:40:17.998Z,16.37
2018-09-06T14:42:47.993Z,17.33
2018-09-06T14:45:18.268Z,19.00
2018-09-06T14:47:48.506Z,18.20
2018-09-06T14:50:18.563Z,18.13
2018-09-06T14:52:48.832Z,19.23
2018-09-06T14:55:19.054Z,19.07
2018-09-06T14:57:49.288Z,18.27
2018-09-06T15:00:19.332Z,19.50
2018-09-06T15:02:49.836Z,20.83
2018-09-06T15:05:20.104Z,20.83
2018-09-06T15:07:49.948Z,19.67
2018-09-06T15:10:19.813Z,23.65
2018-09-06T15:12:49.725Z,21.73
2018-09-06T15:15:19.521Z,22.70
2018-09-06T15:17:49.509Z,23.07
2018-09-06T15:20:19.703Z,21.65
2018-09-06T15:22:50.726Z,19.07
2018-09-06T15:25:22.205Z,25.27
2018-09-06T15:27:53.305Z,25.20
2018-09-06T15:30:24.547Z,23.20
2018-09-06T15:32:54.423Z,26.00
2018-09-06T15:35:24.491Z,24.60
2018-09-06T15:37:54.479Z,23.33
2018-09-06T15:40:24.517Z,27.43
2018-09-06T15:42:54.507Z,24.73
2018-09-06T15:45:24.581Z,24.53
2018-09-06T15:47:54.683Z,25.77
2018-09-06T15:50:25.448Z,30.03
2018-09-06T15:52:55.858Z,30.00
2018-09-06T15:55:25.958Z,28.83
2018-09-06T15:57:56.002Z,28.03
2018-09-06T16:00:26.197Z,30.00
2018-09-06T16:02:56.344Z,29.83
2018-09-06T16:05:26.779Z,31.70
2018-09-06T16:07:56.903Z,29.07
2018-09-06T16:10:27.007Z,26.33
2018-09-06T16:12:56.965Z,30.93
2018-09-06T16:15:27.190Z,28.73
2018-09-06T16:17:57.503Z,29.15
2018-09-06T16:20:27.683Z,33.97
2018-09-06T16:22:58.157Z,31.10
2018-09-06T16:25:28.607Z,31.23
2018-09-06T16:27:58.928Z,35.90
2018-09-06T16:30:29.077Z,34.87
2018-09-06T16:32:59.362Z,37.13
2018-09-06T16:35:29.563Z,37.20
2018-09-06T16:37:59.582Z,38.33
2018-09-06T16:40:29.928Z,39.17
2018-09-06T16:43:00.877Z,37.38
2018-09-06T16:47:39.274Z,38.77
2018-09-06T16:50:12.257Z,38.50
2018-09-06T16:52:42.137Z,41.18
2018-09-06T16:55:12.827Z,42.17
2018-09-06T16:57:43.204Z,44.20
2018-09-06T17:00:13.418Z,44.07
2018-09-06T17:02:43.649Z,47.77
2018-09-06T17:05:13.809Z,46.07
2018-09-06T17:07:43.833Z,46.07
2018-09-06T17:10:14.310Z,47.88
2018-09-06T17:12:45.524Z,43.53
2018-09-06T17:15:16.251Z,48.55
2018-09-06T17:17:46.408Z,46.70
2018-09-06T17:20:16.581Z,53.03
2018-09-06T17:22:46.684Z,51.30
2018-09-06T17:25:16.919Z,54.17
2018-09-06T17:27:46.882Z,48.40
2018-09-06T17:30:16.997Z,46.17
2018-09-06T17:32:47.621Z,49.23
2018-09-06T17:35:17.670Z,48.10
2018-09-06T17:37:48.086Z,52.20
2018-09-06T17:40:18.403Z,55.43
2018-09-06T17:42:48.775Z,53.38
2018-09-06T17:45:19.144Z,53.43
2018-09-06T17:47:49.616Z,54.87
2018-09-06T17:50:19.878Z,55.60
2018-09-06T17:52:50.323Z,59.50
2018-09-06T17:55:20.595Z,59.60
2018-09-06T17:57:50.865Z,60.03
2018-09-06T18:00:20.894Z,54.87
2018-09-06T18:02:51.150Z,53.87
2018-09-06T18:05:20.977Z,53.63
2018-09-06T18:07:51.148Z,53.83
2018-09-06T18:10:21.217Z,48.70
2018-09-06T18:12:51.776Z,45.83
2018-09-06T18:15:22.941Z,43.50
2018-09-06T18:17:53.635Z,41.87
2018-09-06T18:20:24.114Z,42.33
2018-09-06T18:22:55.098Z,40.70
2018-09-06T18:25:25.812Z,39.92
2018-09-06T18:27:55.836Z,40.90
2018-09-06T18:30:26.178Z,38.17
2018-09-06T18:32:56.779Z,41.20
2018-09-06T18:35:27.202Z,39.60
2018-09-06T18:37:57.228Z,36.87
2018-09-06T18:40:27.450Z,40.83
2018-09-06T18:42:58.473Z,39.83
2018-09-06T18:45:29.934Z,40.23
2018-09-06T18:48:00.874Z,37.00
2018-09-06T18:50:32.434Z,39.20
2018-09-06T18:53:03.113Z,41.85
2018-09-06T18:55:34.592Z,41.47
2018-09-06T18:58:05.491Z,46.50
2018-09-06T19:00:36.863Z,47.10
2018-09-06T19:03:07.497Z,48.05
2018-09-06T19:05:37.829Z,47.38
2018-09-06T19:08:07.901Z,51.65
2018-09-06T19:10:38.241Z,49.10
2018-09-06T19:13:08.674Z,46.55
2018-09-06T19:15:38.829Z,49.37
2018-09-06T19:18:09.087Z,47.33
2018-09-06T19:20:39.186Z,47.50
2018-09-06T19:23:09.483Z,42.73
2018-09-06T19:25:39.696Z,39.70
2018-09-06T19:28:09.906Z,41.73
2018-09-06T19:30:40.348Z,40.97
2018-09-06T19:33:10.571Z,41.02
2018-09-06T19:35:40.971Z,37.47
2018-09-06T19:38:11.239Z,37.08
2018-09-06T19:40:41.577Z,34.00
2018-09-06T19:43:12.036Z,32.23
2018-09-06T19:45:42.300Z,29.77
2018-09-06T19:48:12.502Z,26.97
2018-09-06T19:50:42.663Z,25.70
2018-09-06T19:53:12.885Z,27.02
2018-09-06T19:55:43.030Z,25.83
2018-09-06T19:58:12.784Z,24.70
2018-09-06T20:00:42.930Z,24.92
2018-09-06T20:03:13.007Z,22.43
2018-09-06T20:05:43.162Z,21.70
2018-09-06T20:08:13.240Z,21.80
2018-09-06T20:10:43.517Z,19.73
2018-09-06T20:13:13.798Z,17.98
2018-09-06T20:15:43.876Z,18.57
2018-09-06T20:18:13.944Z,17.37
2018-09-06T20:20:44.193Z,16.15
2018-09-06T20:23:14.551Z,16.43
2018-09-06T20:25:44.617Z,15.60
2018-09-06T20:28:14.978Z,15.43
2018-09-06T20:30:46.122Z,15.70
2018-09-06T20:33:16.186Z,14.13
2018-09-06T20:35:46.572Z,13.73
2018-09-06T20:38:16.923Z,14.63
2018-09-06T20:40:47.246Z,13.67
2018-09-06T20:43:17.702Z,13.90
2018-09-06T20:45:47.786Z,14.03
2018-09-06T20:48:17.929Z,13.73
2018-09-06T20:50:47.992Z,13.60
2018-09-06T20:53:18.104Z,14.10
2018-09-06T20:55:48.671Z,12.98
2018-09-06T20:58:18.797Z,12.07
2018-09-06T21:00:48.942Z,13.27
2018-09-06T21:03:19.154Z,14.07
2018-09-06T21:05:49.322Z,13.03
2018-09-06T21:08:19.489Z,13.67
2018-09-06T21:10:49.676Z,15.10
2018-09-06T21:13:19.671Z,15.18
2018-09-06T21:15:49.734Z,14.65
2018-09-06T21:18:19.995Z,15.20
2018-09-06T21:20:50.120Z,14.60
2018-09-06T21:23:20.111Z,14.83
2018-09-06T21:25:50.016Z,14.77
2018-09-06T21:28:20.581Z,14.35
2018-09-06T21:30:50.715Z,13.67
2018-09-06T21:33:20.848Z,13.53
2018-09-06T21:35:50.983Z,13.13
2018-09-06T21:38:21.067Z,13.90
2018-09-06T21:40:51.339Z,12.37
2018-09-06T21:43:21.697Z,11.63
2018-09-06T21:45:51.689Z,11.97
2018-09-06T21:48:21.990Z,11.30
2018-09-06T21:50:52.219Z,11.40
2018-09-06T21:53:22.361Z,12.87
2018-09-06T21:55:52.635Z,12.20
2018-09-06T21:58:22.689Z,14.43
2018-09-06T22:00:52.943Z,14.43
2018-09-06T22:03:28.048Z,16.20
2018-09-06T22:05:58.177Z,16.32
2018-09-06T22:08:28.497Z,15.32
2018-09-06T22:10:58.590Z,15.20
2018-09-06T22:13:28.735Z,15.18
2018-09-06T22:15:58.909Z,16.33
2018-09-06T22:18:28.834Z,13.90
2018-09-06T22:20:58.854Z,15.17
2018-09-06T22:23:29.052Z,16.00
2018-09-06T22:25:59.195Z,16.50
2018-09-06T22:28:29.432Z,15.17
2018-09-06T22:30:59.401Z,16.47
2018-09-06T22:33:29.349Z,16.33
2018-09-06T22:35:59.570Z,17.37
2018-09-06T22:38:29.760Z,17.10
2018-09-06T22:40:59.661Z,16.70
2018-09-06T22:43:29.769Z,17.37
2018-09-06T22:46:00.692Z,18.20
2018-09-06T22:48:31.961Z,19.00
2018-09-06T22:51:03.587Z,21.10
2018-09-06T22:53:34.925Z,22.45
2018-09-06T22:56:05.663Z,21.55
2018-09-06T22:58:36.757Z,22.20
2018-09-06T23:06:12.222Z,23.70
2018-09-06T23:08:42.004Z,23.80
2018-09-06T23:11:12.370Z,25.05
2018-09-06T23:13:42.345Z,26.87
2018-09-06T23:16:12.286Z,24.03
2018-09-06T23:18:42.276Z,25.03
2018-09-06T23:21:12.347Z,23.63
2018-09-06T23:23:42.324Z,24.73
2018-09-06T23:26:12.321Z,24.93
2018-09-06T23:28:42.342Z,26.00
2018-09-06T23:31:12.385Z,26.93
2018-09-06T23:33:45.225Z,26.90
2018-09-06T23:36:15.288Z,26.07
2018-09-06T23:38:45.430Z,25.20
2018-09-06T23:41:15.481Z,24.43
2018-09-06T23:43:45.435Z,22.33
2018-09-06T23:46:15.567Z,22.93
2018-09-06T23:48:45.542Z,26.68
2018-09-06T23:51:15.586Z,21.00
2018-09-06T23:53:45.697Z,22.10
2018-09-06T23:56:15.812Z,21.87
2018-09-06T23:58:45.708Z,21.80
